createdAt,value
2018-10-05T00:02:19.562Z,8.77
2018-10-05T00:04:46.435Z,8.75
2018-10-05T00:07:13.315Z,8.76
2018-10-05T00:09:40.281Z,8.88
2018-10-05T00:12:08.158Z,8.95
2018-10-05T00:14:35.007Z,8.95
2018-10-05T00:17:01.907Z,8.75
2018-10-05T00:19:29.812Z,8.50
2018-10-05T00:21:56.782Z,8.44
2018-10-05T00:24:23.747Z,8.46
2018-10-05T00:26:50.744Z,8.42
2018-10-05T00:29:17.795Z,8.39
2018-10-05T00:31:44.747Z,8.46
2018-10-05T00:34:11.615Z,8.46
2018-10-05T00:36:38.598Z,8.36
2018-10-05T00:39:06.922Z,8.28
2018-10-05T00:41:33.872Z,8.20
2018-10-05T00:44:00.824Z,8.09
2018-10-05T00:46:27.754Z,8.16
2018-10-05T00:48:54.712Z,8.24
2018-10-05T00:51:21.655Z,8.35
2018-10-05T00:53:48.622Z,8.43
2018-10-05T00:56:15.583Z,8.42
2018-10-05T00:58:47.675Z,8.30
2018-10-05T01:01:16.531Z,8.33
2018-10-05T01:03:44.499Z,8.19
2018-10-05T01:06:11.463Z,8.16
2018-10-05T01:08:38.418Z,8.08
2018-10-05T01:11:05.356Z,8.17
2018-10-05T01:13:32.270Z,7.93
2018-10-05T01:15:59.143Z,7.76
2018-10-05T01:18:26.107Z,7.71
2018-10-05T01:20:53.128Z,7.69
2018-10-05T01:23:20.047Z,7.79
2018-10-05T01:25:47.014Z,7.61
2018-10-05T01:28:14.951Z,7.51
2018-10-05T01:30:41.883Z,7.44
2018-10-05T01:33:08.867Z,7.39
2018-10-05T01:35:35.883Z,7.30
2018-10-05T01:38:02.799Z,7.25
2018-10-05T01:40:29.847Z,7.28
2018-10-05T01:42:56.703Z,7.29
2018-10-05T01:45:23.603Z,7.36
2018-10-05T01:47:50.558Z,7.36
2018-10-05T01:50:18.475Z,7.32
2018-10-05T01:52:45.432Z,7.39
2018-10-05T01:55:13.327Z,7.46
2018-10-05T01:57:40.199Z,7.49
2018-10-05T02:00:07.083Z,7.31
2018-10-05T02:02:34.120Z,7.27
2018-10-05T02:05:00.932Z,7.11
2018-10-05T02:07:27.916Z,7.06
2018-10-05T02:09:54.847Z,7.14
2018-10-05T02:12:21.957Z,7.16
2018-10-05T02:14:48.906Z,7.28
2018-10-05T02:17:15.859Z,7.28
2018-10-05T02:19:42.838Z,7.34
2018-10-05T02:22:09.787Z,7.27
2018-10-05T02:24:36.699Z,6.98
2018-10-05T02:27:03.555Z,6.97
2018-10-05T02:29:30.513Z,6.99
2018-10-05T02:31:58.396Z,6.99
2018-10-05T02:34:26.261Z,6.95
2018-10-05T02:36:53.151Z,7.00
2018-10-05T02:39:21.051Z,7.19
2018-10-05T02:41:47.995Z,7.37
2018-10-05T02:44:14.899Z,7.61
2018-10-05T02:46:41.766Z,7.60
2018-10-05T02:49:08.731Z,7.51
2018-10-05T02:51:35.706Z,7.55
2018-10-05T02:54:03.583Z,7.79
2018-10-05T02:56:34.048Z,7.89
2018-10-05T02:59:01.135Z,7.94
2018-10-05T03:01:39.674Z,8.01
2018-10-05T03:04:06.722Z,8.02
2018-10-05T03:06:34.631Z,8.06
2018-10-05T03:09:01.591Z,8.18
2018-10-05T03:11:28.483Z,8.24
2018-10-05T03:13:55.439Z,8.16
2018-10-05T03:16:22.311Z,8.16
2018-10-05T03:18:50.203Z,8.09
2018-10-05T03:21:17.066Z,8.19
2018-10-05T03:23:44.970Z,8.35
2018-10-05T03:26:11.943Z,8.18
2018-10-05T03:28:38.812Z,8.21
2018-10-05T03:31:05.886Z,8.29
2018-10-05T03:33:32.896Z,8.30
2018-10-05T03:35:59.824Z,8.30
2018-10-05T03:38:26.804Z,8.18
2018-10-05T03:40:53.763Z,8.16
2018-10-05T03:43:24.014Z,8.03
2018-10-05T03:45:50.997Z,7.90
2018-10-05T03:48:17.963Z,7.77
2018-10-05T03:50:44.924Z,7.96
2018-10-05T03:53:12.846Z,7.65
2018-10-05T03:55:39.783Z,7.60
2018-10-05T03:58:06.746Z,7.56
2018-10-05T04:00:33.619Z,7.55
2018-10-05T04:03:00.655Z,7.52
2018-10-05T04:05:27.567Z,7.47
2018-10-05T04:07:54.531Z,7.80
2018-10-05T04:10:21.404Z,7.92
2018-10-05T04:12:50.259Z,7.95
2018-10-05T04:15:18.252Z,7.44
2018-10-05T04:17:45.216Z,7.26
2018-10-05T04:20:13.100Z,7.01
2018-10-05T04:22:40.035Z,6.93
2018-10-05T04:25:07.940Z,6.99
2018-10-05T04:27:34.948Z,7.17
2018-10-05T04:30:02.799Z,7.29
2018-10-05T04:32:29.689Z,7.26
2018-10-05T04:34:56.647Z,7.24
2018-10-05T04:37:23.840Z,7.14
2018-10-05T04:39:50.798Z,7.00
2018-10-05T04:42:17.757Z,6.71
2018-10-05T04:44:46.817Z,6.71
2018-10-05T04:47:13.748Z,6.48
2018-10-05T04:49:40.668Z,6.36
2018-10-05T04:52:07.587Z,6.30
2018-10-05T04:54:34.569Z,6.36
2018-10-05T04:57:01.551Z,6.51
2018-10-05T04:59:29.432Z,6.50
2018-10-05T05:01:56.396Z,6.55
2018-10-05T05:04:23.363Z,6.57
2018-10-05T05:06:51.308Z,6.65
2018-10-05T05:09:18.222Z,6.64
2018-10-05T05:11:45.215Z,6.47
2018-10-05T05:14:12.142Z,6.25
2018-10-05T05:16:39.368Z,5.99
2018-10-05T05:19:06.303Z,6.04
2018-10-05T05:21:33.183Z,5.93
2018-10-05T05:24:00.162Z,5.88
2018-10-05T05:26:27.160Z,5.97
2018-10-05T05:28:54.147Z,6.13
2018-10-05T05:31:21.067Z,6.17
2018-10-05T05:33:48.126Z,6.27
2018-10-05T05:36:21.059Z,6.42
2018-10-05T05:38:48.028Z,6.43
2018-10-05T05:41:14.891Z,6.45
2018-10-05T05:43:41.871Z,6.46
2018-10-05T05:46:08.868Z,6.42
2018-10-05T05:48:36.831Z,6.32
2018-10-05T05:51:03.818Z,6.16
2018-10-05T05:53:30.767Z,6.31
2018-10-05T05:55:57.842Z,6.45
2018-10-05T05:58:24.855Z,6.49
2018-10-05T06:00:51.779Z,6.57
2018-10-05T06:03:18.755Z,6.60
2018-10-05T06:05:45.751Z,6.62
2018-10-05T06:08:13.827Z,6.52
2018-10-05T06:10:40.837Z,6.54
2018-10-05T06:13:10.707Z,6.67
2018-10-05T06:15:37.979Z,6.82
2018-10-05T06:18:04.929Z,6.98
2018-10-05T06:20:35.437Z,7.12
2018-10-05T06:23:03.036Z,7.27
2018-10-05T06:25:30.058Z,7.45
2018-10-05T06:27:58.935Z,7.57
2018-10-05T06:30:26.334Z,7.72
2018-10-05T06:32:54.693Z,7.93
2018-10-05T06:35:22.758Z,8.31
2018-10-05T06:37:49.685Z,8.25
2018-10-05T06:40:16.671Z,8.17
2018-10-05T06:42:43.636Z,7.99
2018-10-05T06:45:10.596Z,7.93
2018-10-05T06:47:39.552Z,8.01
2018-10-05T06:50:11.174Z,7.99
2018-10-05T06:52:47.682Z,8.10
2018-10-05T06:55:14.655Z,8.24
2018-10-05T06:57:42.595Z,8.55
2018-10-05T07:00:17.204Z,8.80
2018-10-05T07:02:44.179Z,9.02
2018-10-05T07:05:12.051Z,9.28
2018-10-05T07:07:46.824Z,9.37
2018-10-05T07:10:17.506Z,9.51
2018-10-05T07:12:44.488Z,9.65
2018-10-05T07:15:11.451Z,9.71
2018-10-05T07:17:40.419Z,9.69
2018-10-05T07:20:07.446Z,9.81
2018-10-05T07:22:38.514Z,9.91
2018-10-05T07:25:05.425Z,9.91
2018-10-05T07:27:32.785Z,9.95
2018-10-05T07:30:01.747Z,10.02
2018-10-05T07:32:28.691Z,10.07
2018-10-05T07:34:56.613Z,10.19
2018-10-05T07:37:26.947Z,10.29
2018-10-05T07:39:55.772Z,10.53
2018-10-05T07:42:22.747Z,10.63
2018-10-05T07:44:49.719Z,10.65
2018-10-05T07:47:16.667Z,10.68
2018-10-05T07:49:46.717Z,10.65
2018-10-05T07:52:13.684Z,10.72
2018-10-05T07:57:15.784Z,10.92
2018-10-05T07:59:42.712Z,10.98
2018-10-05T08:02:14.316Z,11.28
2018-10-05T08:04:41.259Z,11.50
2018-10-05T08:07:08.255Z,11.45
2018-10-05T08:09:41.173Z,11.47
2018-10-05T08:12:09.278Z,12.07
2018-10-05T08:14:39.947Z,12.03
2018-10-05T08:17:09.109Z,12.02
2018-10-05T08:19:36.099Z,12.15
2018-10-05T08:22:03.299Z,12.28
2018-10-05T08:24:35.327Z,12.92
2018-10-05T08:27:03.010Z,12.41
2018-10-05T08:29:30.823Z,12.24
2018-10-05T08:31:57.791Z,12.38
2018-10-05T08:34:24.836Z,12.46
2018-10-05T08:36:52.274Z,12.58
2018-10-05T08:39:19.155Z,12.89
2018-10-05T08:41:46.572Z,13.18
2018-10-05T08:44:15.451Z,13.24
2018-10-05T08:46:42.449Z,13.30
2018-10-05T08:49:09.479Z,13.50
2018-10-05T08:51:36.560Z,13.66
2018-10-05T08:54:03.503Z,13.94
2018-10-05T08:56:30.484Z,13.68
2018-10-05T08:59:00.848Z,13.86
2018-10-05T09:01:31.429Z,14.10
2018-10-05T09:04:03.595Z,14.09
2018-10-05T09:06:32.534Z,14.13
2018-10-05T09:09:10.305Z,14.00
2018-10-05T09:11:38.298Z,14.20
2018-10-05T09:14:06.561Z,14.62
2018-10-05T09:16:33.523Z,14.73
2018-10-05T09:19:00.496Z,15.27
2018-10-05T09:21:27.439Z,15.58
2018-10-05T09:23:54.405Z,15.63
2018-10-05T09:26:26.584Z,16.08
2018-10-05T09:28:57.129Z,16.21
2018-10-05T09:31:24.119Z,16.03
2018-10-05T09:33:51.027Z,16.22
2018-10-05T09:36:25.969Z,16.61
2018-10-05T09:38:52.907Z,16.93
2018-10-05T09:41:20.047Z,16.91
2018-10-05T09:43:48.049Z,17.02
2018-10-05T09:46:16.128Z,17.31
2018-10-05T09:48:46.345Z,17.40
2018-10-05T09:51:14.248Z,17.61
2018-10-05T09:53:41.216Z,17.27
2018-10-05T09:56:09.331Z,17.26
2018-10-05T09:58:36.277Z,17.46
2018-10-05T10:01:09.803Z,17.54
2018-10-05T10:03:36.965Z,17.91
2018-10-05T10:06:04.616Z,17.76
2018-10-05T10:08:31.539Z,17.84
2018-10-05T10:11:08.057Z,18.13
2018-10-05T10:13:35.060Z,18.24
2018-10-05T10:16:03.028Z,18.12
2018-10-05T10:18:30.941Z,17.68
2018-10-05T10:20:57.963Z,17.59
2018-10-05T10:23:26.950Z,17.87
2018-10-05T10:25:53.943Z,18.30
2018-10-05T10:28:25.371Z,18.20
2018-10-05T10:30:52.300Z,18.23
2018-10-05T10:33:20.221Z,18.43
2018-10-05T10:35:49.215Z,18.87
2018-10-05T10:38:16.204Z,19.07
2018-10-05T10:40:47.833Z,19.04
2018-10-05T10:45:43.495Z,18.89
2018-10-05T10:48:10.488Z,18.96
2018-10-05T10:50:37.435Z,19.22
2018-10-05T10:53:04.463Z,19.38
2018-10-05T10:55:31.412Z,19.47
2018-10-05T10:57:58.500Z,19.45
2018-10-05T11:00:25.391Z,19.43
2018-10-05T11:02:52.279Z,19.78
2018-10-05T11:05:19.219Z,19.54
2018-10-05T11:07:46.171Z,19.55
2018-10-05T11:10:13.111Z,20.03
2018-10-05T11:12:40.063Z,19.91
2018-10-05T11:15:07.031Z,20.01
2018-10-05T11:17:33.939Z,19.37
2018-10-05T11:20:00.879Z,19.58
2018-10-05T11:22:27.859Z,19.72
2018-10-05T11:24:54.771Z,20.12
2018-10-05T11:27:21.708Z,20.29
2018-10-05T11:29:48.761Z,20.09
2018-10-05T11:32:15.643Z,20.30
2018-10-05T11:34:42.627Z,20.07
2018-10-05T11:37:09.639Z,19.95
2018-10-05T11:39:36.647Z,19.55
2018-10-05T11:42:03.671Z,19.74
2018-10-05T11:44:30.727Z,20.22
2018-10-05T11:46:57.707Z,20.39
2018-10-05T11:49:24.706Z,20.03
2018-10-05T11:51:51.582Z,19.73
2018-10-05T11:54:18.529Z,20.01
2018-10-05T11:56:45.484Z,20.10
2018-10-05T11:59:12.462Z,20.13
2018-10-05T12:01:39.366Z,20.19
2018-10-05T12:04:06.923Z,20.42
2018-10-05T12:06:33.864Z,20.34
2018-10-05T12:09:00.822Z,20.33
2018-10-05T12:11:27.831Z,20.49
2018-10-05T12:13:55.651Z,20.61
2018-10-05T12:16:22.578Z,21.08
2018-10-05T12:18:49.629Z,21.04
2018-10-05T12:21:16.558Z,21.08
2018-10-05T12:23:43.661Z,21.03
2018-10-05T12:26:10.628Z,20.79
2018-10-05T12:28:37.536Z,20.66
2018-10-05T12:31:04.481Z,20.90
2018-10-05T12:33:31.507Z,21.15
2018-10-05T12:35:58.367Z,21.19
2018-10-05T12:38:25.321Z,21.15
2018-10-05T12:40:52.175Z,21.37
2018-10-05T12:43:19.137Z,21.45
2018-10-05T12:45:46.011Z,21.46
2018-10-05T12:48:12.906Z,21.03
2018-10-05T12:50:39.776Z,20.92
2018-10-05T12:53:06.709Z,20.86
2018-10-05T12:55:33.552Z,20.88
2018-10-05T12:58:00.479Z,20.82
2018-10-05T13:00:27.359Z,21.12
2018-10-05T13:02:54.378Z,21.26
2018-10-05T13:05:21.266Z,21.24
2018-10-05T13:07:48.216Z,21.09
2018-10-05T13:10:15.079Z,20.84
2018-10-05T13:12:42.068Z,20.89
2018-10-05T13:15:08.999Z,21.10
2018-10-05T13:18:47.471Z,21.82
2018-10-05T13:21:14.338Z,21.62
2018-10-05T13:23:41.187Z,21.59
2018-10-05T13:26:08.431Z,21.98
2018-10-05T13:28:35.307Z,22.19
2018-10-05T13:31:02.115Z,22.33
2018-10-05T13:33:28.971Z,22.07
2018-10-05T13:35:55.819Z,21.62
2018-10-05T13:38:22.752Z,21.61
2018-10-05T13:40:49.568Z,22.04
2018-10-05T13:43:16.414Z,22.30
2018-10-05T13:45:43.263Z,21.77
2018-10-05T13:48:10.218Z,22.11
2018-10-05T13:50:37.065Z,21.96
2018-10-05T13:53:03.899Z,21.88
2018-10-05T13:55:30.755Z,21.83
2018-10-05T13:57:57.606Z,21.78
2018-10-05T14:00:24.457Z,21.84
2018-10-05T14:02:51.369Z,21.97
2018-10-05T14:05:18.160Z,22.11
2018-10-05T14:07:45.020Z,21.91
2018-10-05T14:10:11.905Z,21.74
2018-10-05T14:12:38.886Z,21.82
2018-10-05T14:15:05.726Z,21.79
2018-10-05T14:17:32.621Z,21.75
2018-10-05T14:19:59.467Z,21.71
2018-10-05T14:22:26.303Z,21.97
2018-10-05T14:24:53.147Z,21.84
2018-10-05T14:27:19.995Z,21.74
2018-10-05T14:29:46.847Z,21.72
2018-10-05T14:32:13.698Z,21.86
2018-10-05T14:34:40.539Z,21.86
2018-10-05T14:37:07.451Z,21.74
2018-10-05T14:39:34.378Z,21.90
2018-10-05T14:42:01.227Z,21.78
2018-10-05T14:44:28.182Z,21.73
2018-10-05T14:46:55.118Z,21.78
2018-10-05T14:49:22.060Z,21.84
2018-10-05T14:51:48.943Z,21.98
2018-10-05T14:54:15.854Z,22.00
2018-10-05T14:56:42.704Z,22.01
2018-10-05T14:59:09.643Z,22.12
2018-10-05T15:01:36.495Z,21.98
2018-10-05T15:04:03.339Z,22.09
2018-10-05T15:06:30.243Z,22.16
2018-10-05T15:08:57.142Z,22.16
2018-10-05T15:11:24.082Z,22.19
2018-10-05T15:13:50.935Z,22.15
2018-10-05T15:16:17.790Z,22.15
2018-10-05T15:18:44.646Z,21.98
2018-10-05T15:21:11.481Z,22.09
2018-10-05T15:23:38.347Z,21.93
2018-10-05T15:26:05.163Z,22.55
2018-10-05T15:28:32.011Z,22.13
2018-10-05T15:30:59.097Z,21.85
2018-10-05T15:33:25.934Z,22.50
2018-10-05T15:35:52.799Z,21.97
2018-10-05T15:38:19.643Z,21.83
2018-10-05T15:40:46.491Z,22.02
2018-10-05T15:43:13.341Z,22.06
2018-10-05T15:45:40.191Z,22.06
2018-10-05T15:48:07.041Z,22.09
2018-10-05T15:50:33.878Z,21.94
2018-10-05T15:53:00.839Z,21.91
2018-10-05T15:55:27.570Z,21.89
2018-10-05T15:57:54.519Z,22.42
2018-10-05T16:00:21.359Z,21.94
2018-10-05T16:02:48.270Z,22.48
2018-10-05T16:05:15.196Z,21.94
2018-10-05T16:07:42.047Z,21.84
2018-10-05T16:10:08.900Z,21.66
2018-10-05T16:12:35.887Z,21.49
2018-10-05T16:15:02.777Z,21.66
2018-10-05T16:17:29.803Z,21.38
2018-10-05T16:19:56.659Z,21.22
2018-10-05T16:22:23.558Z,21.04
2018-10-05T16:24:50.492Z,21.04
2018-10-05T16:27:17.256Z,21.00
2018-10-05T16:29:44.102Z,20.83
2018-10-05T16:32:11.382Z,20.67
2018-10-05T16:34:38.234Z,20.48
2018-10-05T16:37:05.483Z,20.26
2018-10-05T16:39:32.328Z,20.07
2018-10-05T16:41:59.174Z,19.96
2018-10-05T16:44:26.675Z,19.81
2018-10-05T16:46:53.523Z,19.63
2018-10-05T16:49:20.371Z,19.45
2018-10-05T16:51:47.271Z,19.20
2018-10-05T16:54:14.115Z,18.98
2018-10-05T16:56:41.039Z,18.87
2018-10-05T16:59:07.995Z,18.83
2018-10-05T17:01:35.528Z,18.75
2018-10-05T17:04:02.539Z,18.71
2018-10-05T17:06:29.648Z,18.63
2018-10-05T17:09:00.679Z,18.39
2018-10-05T17:11:27.622Z,18.46
2018-10-05T17:13:54.618Z,18.35
2018-10-05T17:16:21.619Z,18.40
2018-10-05T17:18:49.486Z,19.01
2018-10-05T17:21:16.344Z,18.33
2018-10-05T17:23:43.315Z,18.17
2018-10-05T17:26:10.051Z,17.93
2018-10-05T17:28:36.954Z,17.86
2018-10-05T17:31:03.791Z,17.80
2018-10-05T17:33:30.635Z,17.77
2018-10-05T17:35:57.474Z,17.69
2018-10-05T17:38:24.359Z,17.55
2018-10-05T17:40:51.198Z,17.51
2018-10-05T17:43:18.114Z,17.44
2018-10-05T17:45:45.055Z,17.29
2018-10-05T17:48:11.921Z,17.93
2018-10-05T17:50:38.843Z,17.33
2018-10-05T17:53:05.875Z,17.19
2018-10-05T17:55:32.806Z,17.04
2018-10-05T17:57:59.575Z,16.88
2018-10-05T18:00:26.415Z,16.53
2018-10-05T18:02:53.467Z,16.27
2018-10-05T18:05:20.357Z,16.24
2018-10-05T18:07:47.243Z,16.23
2018-10-05T18:10:14.118Z,16.35
2018-10-05T18:12:40.954Z,16.36
2018-10-05T18:15:07.791Z,16.36
2018-10-05T18:17:34.758Z,16.39
2018-10-05T18:20:01.599Z,16.34
2018-10-05T18:22:28.436Z,16.42
2018-10-05T18:24:55.279Z,16.31
2018-10-05T18:27:22.165Z,16.16
2018-10-05T18:29:49.063Z,16.26
2018-10-05T18:32:15.894Z,16.12
2018-10-05T18:34:42.747Z,15.96
2018-10-05T18:37:09.587Z,15.91
2018-10-05T18:39:36.527Z,15.80
2018-10-05T18:42:03.425Z,15.62
2018-10-05T18:44:30.270Z,15.53
2018-10-05T18:46:57.114Z,16.35
2018-10-05T18:49:23.967Z,15.73
2018-10-05T18:51:50.818Z,15.43
2018-10-05T18:54:17.673Z,15.35
2018-10-05T18:56:56.021Z,15.38
2018-10-05T18:59:22.915Z,15.29
2018-10-05T19:01:49.746Z,15.11
2018-10-05T19:04:16.587Z,15.20
2018-10-05T19:06:43.498Z,15.25
2018-10-05T19:09:10.306Z,15.29
2018-10-05T19:11:37.468Z,15.33
2018-10-05T19:14:04.359Z,15.33
2018-10-05T19:16:53.119Z,15.21
2018-10-05T19:19:19.990Z,15.05
2018-10-05T19:21:47.260Z,15.35
2018-10-05T19:24:14.135Z,15.16
2018-10-05T19:26:41.113Z,15.11
2018-10-05T19:29:07.949Z,14.85
2018-10-05T19:31:34.936Z,14.80
2018-10-05T19:34:01.925Z,14.84
2018-10-05T19:36:28.943Z,14.80
2018-10-05T19:38:55.729Z,14.74
2018-10-05T19:41:22.656Z,14.82
2018-10-05T19:43:49.532Z,14.75
2018-10-05T19:46:16.433Z,14.65
2018-10-05T19:48:43.657Z,14.48
2018-10-05T19:51:10.537Z,14.46
2018-10-05T19:53:37.594Z,14.45
2018-10-05T19:56:04.383Z,14.50
2018-10-05T19:58:31.269Z,14.60
2018-10-05T20:00:58.190Z,14.65
2018-10-05T20:03:25.184Z,15.12
2018-10-05T20:05:52.387Z,14.75
2018-10-05T20:08:19.274Z,14.60
2018-10-05T20:10:46.168Z,14.63
2018-10-05T20:13:13.065Z,14.70
2018-10-05T20:15:39.948Z,14.73
2018-10-05T20:18:07.097Z,14.67
2018-10-05T20:20:33.728Z,14.62
2018-10-05T20:23:00.616Z,15.24
2018-10-05T20:25:27.492Z,14.79
2018-10-05T20:27:54.368Z,14.64
2018-10-05T20:30:21.248Z,14.39
2018-10-05T20:32:48.124Z,14.20
2018-10-05T20:35:15.000Z,14.19
2018-10-05T20:37:42.028Z,14.08
2018-10-05T20:40:08.799Z,13.83
2018-10-05T20:42:35.671Z,14.38
2018-10-05T20:45:02.608Z,13.98
2018-10-05T20:47:29.546Z,13.74
2018-10-05T20:49:56.434Z,14.40
2018-10-05T20:52:23.312Z,13.92
2018-10-05T20:54:50.184Z,13.64
2018-10-05T20:57:17.112Z,13.81
2018-10-05T20:59:43.988Z,13.65
2018-10-05T21:02:10.869Z,13.55
2018-10-05T21:04:37.745Z,13.46
2018-10-05T21:07:04.653Z,13.49
2018-10-05T21:09:31.584Z,13.69
2018-10-05T21:11:58.409Z,13.51
2018-10-05T21:14:25.275Z,13.46
2018-10-05T21:16:52.332Z,13.31
2018-10-05T21:19:19.212Z,13.24
2018-10-05T21:21:46.091Z,13.16
2018-10-05T21:24:13.000Z,13.17
2018-10-05T21:26:39.907Z,12.94
2018-10-05T21:29:07.265Z,13.20
2018-10-05T21:31:34.143Z,12.74
2018-10-05T21:34:01.020Z,12.47
2018-10-05T21:36:27.888Z,12.58
2018-10-05T21:38:54.871Z,12.44
2018-10-05T21:41:21.671Z,12.28
2018-10-05T21:43:48.558Z,12.24
2018-10-05T21:46:15.428Z,12.23
2018-10-05T21:48:42.312Z,12.38
2018-10-05T21:51:09.188Z,12.35
2018-10-05T21:53:36.220Z,12.29
2018-10-05T21:56:03.096Z,12.12
2018-10-05T21:58:29.982Z,12.00
2018-10-05T22:00:56.831Z,12.12
2018-10-05T22:03:23.713Z,12.18
2018-10-05T22:05:50.590Z,12.13
2018-10-05T22:08:17.496Z,12.14
2018-10-05T22:10:44.362Z,11.92
2018-10-05T22:13:11.236Z,11.67
2018-10-05T22:15:38.145Z,12.45
2018-10-05T22:18:05.092Z,11.85
2018-10-05T22:20:32.019Z,11.84
2018-10-05T22:22:58.884Z,11.81
2018-10-05T22:25:25.756Z,11.67
2018-10-05T22:27:52.627Z,11.69
2018-10-05T22:30:19.507Z,11.80
2018-10-05T22:32:46.396Z,11.75
2018-10-05T22:35:13.328Z,11.58
2018-10-05T22:37:40.149Z,11.62
2018-10-05T22:40:28.950Z,12.17
2018-10-05T22:42:55.707Z,11.61
2018-10-05T22:45:22.543Z,11.48
2018-10-05T22:47:49.379Z,11.38
2018-10-05T22:50:16.224Z,11.60
2018-10-05T22:52:43.079Z,11.41
2018-10-05T22:55:09.906Z,11.02
2018-10-05T22:57:36.743Z,10.91
2018-10-05T23:00:04.116Z,10.97
2018-10-05T23:02:31.034Z,11.18
2018-10-05T23:04:57.882Z,11.48
2018-10-05T23:07:24.878Z,11.42
2018-10-05T23:09:51.718Z,11.18
2018-10-05T23:12:18.574Z,11.30
2018-10-05T23:14:45.419Z,11.52
2018-10-05T23:17:12.255Z,10.97
2018-10-05T23:19:39.083Z,11.00
2018-10-05T23:22:05.938Z,10.99
2018-10-05T23:24:32.807Z,11.03
2018-10-05T23:26:59.787Z,11.01
2018-10-05T23:29:26.658Z,10.98
2018-10-05T23:31:53.479Z,10.93
2018-10-05T23:34:20.319Z,10.95
2018-10-05T23:36:47.167Z,10.91
2018-10-05T23:39:14.002Z,11.13
2018-10-05T23:41:40.836Z,11.24
2018-10-05T23:44:08.055Z,11.42
2018-10-05T23:46:34.899Z,11.24
2018-10-05T23:49:01.753Z,11.08
2018-10-05T23:51:28.584Z,10.93
2018-10-05T23:53:55.409Z,10.82
2018-10-05T23:56:22.246Z,11.00
2018-10-05T23:58:49.075Z,10.73
